Time;durP1;ratioP1;P1;durP2;ratioP2;P2;SDS_P1;SDS_P2;PMS_P1;PMS_P2;Temp;Humidity;BMP_temperature;BMP_pressure;BME280_temperature;BME280_humidity;BME280_pressure;Samples;Min_cycle;Max_cycle;Signal;HPM_P1;HPM_P2
2022/07/01 00:01:26;;;;;;;14.48;10.77;;;;;;;;;;5071102;28;20024;-81
2022/07/01 00:03:52;;;;;;;18.88;10.75;;;;;;;;;;5072405;28;20016;-79
2022/07/01 00:06:18;;;;;;;15.52;10.88;;;;;;;;;;5071250;28;20027;-80
2022/07/01 00:08:45;;;;;;;14.75;10.68;;;;;;;;;;5072372;28;20095;-80
2022/07/01 00:11:11;;;;;;;15.35;10.20;;;;;;;;;;5069393;28;20025;-80
2022/07/01 00:13:38;;;;;;;17.33;10.48;;;;;;;;;;5070866;28;20016;-80
2022/07/01 00:16:04;;;;;;;15.00;9.82;;;;;;;;;;5070820;28;20021;-79
2022/07/01 00:18:33;;;;;;;18.63;11.10;;;;;;;;;;5069773;28;20038;-80
2022/07/01 00:21:02;;;;;;;18.33;10.68;;;;;;;;;;5072250;28;20016;-80
2022/07/01 00:23:28;;;;;;;18.70;11.07;;;;;;;;;;5071709;28;20047;-81
2022/07/01 00:25:54;;;;;;;17.77;11.00;;;;;;;;;;5071880;28;20471;-79
2022/07/01 00:28:21;;;;;;;17.20;10.20;;;;;;;;;;5071107;28;20031;-79
2022/07/01 00:30:47;;;;;;;20.92;11.30;;;;;;;;;;5072140;28;20056;-79
2022/07/01 00:33:13;;;;;;;17.80;10.70;;;;;;;;;;5070986;28;20029;-80
2022/07/01 00:35:39;;;;;;;21.10;12.23;;;;;;;;;;5071005;28;20073;-80
2022/07/01 00:38:05;;;;;;;18.67;11.90;;;;;;;;;;5072327;28;20093;-78
2022/07/01 00:40:31;;;;;;;15.65;10.95;;;;;;;;;;5076696;28;20035;-79
2022/07/01 00:42:57;;;;;;;19.05;11.15;;;;;;;;;;5074865;28;20089;-78
2022/07/01 00:45:24;;;;;;;17.60;11.20;;;;;;;;;;5074563;28;20120;-81
2022/07/01 00:47:50;;;;;;;15.07;11.57;;;;;;;;;;5076042;28;20074;-79
2022/07/01 00:50:16;;;;;;;16.27;11.30;;;;;;;;;;5076163;28;20017;-79
2022/07/01 00:52:44;;;;;;;15.27;11.65;;;;;;;;;;5075839;28;20115;-79
2022/07/01 00:55:12;;;;;;;24.20;11.63;;;;;;;;;;5073356;28;20089;-80
2022/07/01 00:57:39;;;;;;;17.70;11.68;;;;;;;;;;5075135;28;20031;-78
2022/07/01 01:00:09;;;;;;;25.00;11.50;;;;;;;;;;5077172;28;20025;-78
2022/07/01 01:02:36;;;;;;;19.60;11.63;;;;;;;;;;5077124;28;20029;-77
2022/07/01 01:05:03;;;;;;;19.42;11.70;;;;;;;;;;5076855;28;20024;-78
2022/07/01 01:07:29;;;;;;;20.88;12.27;;;;;;;;;;5075943;28;20046;-79
2022/07/01 01:09:56;;;;;;;20.27;11.23;;;;;;;;;;5077175;28;20021;-78
2022/07/01 01:12:22;;;;;;;18.10;12.00;;;;;;;;;;5076210;28;20043;-78
2022/07/01 01:14:49;;;;;;;22.38;12.23;;;;;;;;;;5076216;28;20078;-79
2022/07/01 01:17:15;;;;;;;21.10;13.60;;;;;;;;;;5076978;28;20103;-77
2022/07/01 01:19:42;;;;;;;24.45;15.52;;;25.00;99.90;;;;;;5076406;28;20383;-77
2022/07/01 01:22:09;;;;;;;20.80;14.18;;;25.00;99.90;;;;;;5075490;28;20028;-78
2022/07/01 01:24:36;;;;;;;20.65;13.20;;;24.90;99.90;;;;;;5076869;28;20089;-78
2022/07/01 01:27:06;;;;;;;21.80;14.32;;;24.80;99.90;;;;;;5076187;28;20052;-78
2022/07/01 01:29:32;;;;;;;24.35;13.82;;;24.80;99.90;;;;;;5076805;28;20031;-78
2022/07/01 01:31:58;;;;;;;17.67;13.63;;;24.70;99.90;;;;;;5075384;28;20398;-78
2022/07/01 01:34:24;;;;;;;24.23;13.85;;;24.70;99.90;;;;;;5076557;28;20107;-79
2022/07/01 01:36:50;;;;;;;20.30;14.02;;;24.70;99.90;;;;;;5076688;28;20071;-78
2022/07/01 01:39:16;;;;;;;24.77;13.70;;;24.60;99.90;;;;;;5074417;28;20028;-78
2022/07/01 01:41:42;;;;;;;22.92;13.10;;;24.60;99.90;;;;;;5075714;28;20028;-78
2022/07/01 01:44:08;;;;;;;20.35;13.30;;;24.50;99.90;;;;;;5074351;28;20021;-78
2022/07/01 01:46:34;;;;;;;16.65;12.98;;;24.50;99.90;;;;;;5074211;28;20024;-77
2022/07/01 01:49:01;;;;;;;23.15;12.63;;;24.40;99.90;;;;;;5073336;28;20470;-79
2022/07/01 01:51:27;;;;;;;19.73;12.50;;;24.40;99.90;;;;;;5075098;28;20059;-80
2022/07/01 01:53:53;;;;;;;20.58;12.73;;;24.30;99.90;;;;;;5075173;28;20031;-77
2022/07/01 01:56:19;;;;;;;21.73;12.98;;;24.20;99.90;;;;;;5075022;28;20032;-79
2022/07/01 01:58:44;;;;;;;21.90;13.23;;;24.20;99.90;;;;;;5075637;28;20078;-79
2022/07/01 02:01:11;;;;;;;16.55;12.50;;;24.20;99.90;;;;;;5073689;28;20029;-79
2022/07/01 02:03:38;;;;;;;21.05;13.85;;;24.10;99.90;;;;;;5074001;28;20025;-79
2022/07/01 02:06:06;;;;;;;27.33;13.00;;;24.10;99.90;;;;;;5075039;28;20025;-80
2022/07/01 02:08:32;;;;;;;20.30;13.48;;;24.10;99.90;;;;;;5075090;28;20055;-79
2022/07/01 02:10:59;;;;;;;18.95;14.18;;;24.10;99.90;;;;;;5075107;28;20079;-78
2022/07/01 02:13:24;;;;;;;20.38;13.57;;;24.00;99.90;;;;;;5075095;28;20082;-78
2022/07/01 02:15:51;;;;;;;16.75;13.15;;;24.00;99.90;;;;;;5074399;28;20028;-78
2022/07/01 02:18:17;;;;;;;19.33;12.95;;;24.00;99.90;;;;;;5074936;28;20028;-77
2022/07/01 02:20:43;;;;;;;18.38;13.20;;;24.00;99.90;;;;;;5075168;28;20029;-79
2022/07/01 02:23:09;;;;;;;16.52;13.38;;;24.00;99.90;;;;;;5075534;28;20071;-78
2022/07/01 02:25:36;;;;;;;18.90;13.55;;;24.00;99.90;;;;;;5075787;28;20024;-79
2022/07/01 02:28:03;;;;;;;19.42;13.82;;;23.90;99.90;;;;;;5075846;28;20132;-78
2022/07/01 02:30:35;;;;;;;25.58;14.70;;;24.00;99.90;;;;;;5075058;28;20430;-79
2022/07/01 02:33:00;;;;;;;;;;;24.00;99.90;;;;;;5074757;28;20383;-80
2022/07/01 02:35:26;;;;;;;20.23;13.07;;;23.90;99.90;;;;;;5075307;28;19904;-77
2022/07/01 02:37:52;;;;;;;17.98;14.10;;;23.90;99.90;;;;;;5074120;28;20078;-79
2022/07/01 02:40:18;;;;;;;22.50;14.35;;;23.90;99.90;;;;;;5074592;28;20093;-78
2022/07/01 02:42:43;;;;;;;19.40;13.40;;;23.90;99.90;;;;;;5074436;28;20107;-78
2022/07/01 02:45:09;;;;;;;23.45;12.80;;;23.80;99.90;;;;;;5073531;28;20390;-79
2022/07/01 02:47:36;;;;;;;24.52;13.65;;;23.80;99.90;;;;;;5074018;28;20379;-80
2022/07/01 02:50:08;;;;;;;18.90;13.32;;;23.80;99.90;;;;;;5073657;28;20029;-79
2022/07/01 02:52:34;;;;;;;;;;;23.80;99.90;;;;;;5075352;28;20032;-79
2022/07/01 02:55:02;;;;;;;18.55;13.40;;;23.80;99.90;;;;;;5075040;28;20343;-79
2022/07/01 02:57:28;;;;;;;17.88;14.20;;;23.80;99.90;;;;;;5073306;28;20112;-80
2022/07/01 02:59:53;;;;;;;22.75;14.60;;;23.70;99.90;;;;;;5074766;28;20105;-77
2022/07/01 03:02:20;;;;;;;21.60;14.65;;;23.60;99.90;;;;;;5072744;28;20028;-79
2022/07/01 03:04:47;;;;;;;22.30;14.73;;;23.60;99.90;;;;;;5074564;28;20082;-78
2022/07/01 03:07:14;;;;;;;24.25;14.63;;;23.50;99.90;;;;;;5074653;28;20082;-79
2022/07/01 03:09:41;;;;;;;27.90;14.32;;;23.50;99.90;;;;;;5073623;28;20456;-79
2022/07/01 03:14:54;;;;;;;20.42;14.88;;;23.40;99.90;;;;;;5074750;28;20040;-77
2022/07/01 03:17:20;;;;;;;23.80;14.63;;;23.40;99.90;;;;;;5074400;28;20067;-79
2022/07/01 03:19:46;;;;;;;16.90;14.05;;;23.40;99.90;;;;;;5074457;28;20033;-80
2022/07/01 03:22:12;;;;;;;20.60;14.30;;;23.50;99.90;;;;;;5074485;28;20078;-79
2022/07/01 03:24:38;;;;;;;18.30;14.55;;;23.50;99.90;;;;;;5073814;28;20032;-77
2022/07/01 03:27:04;;;;;;;21.13;14.98;;;23.50;99.90;;;;;;5073600;28;20049;-79
2022/07/01 03:29:30;;;;;;;22.45;15.30;;;23.50;99.90;;;;;;5073019;28;20375;-78
2022/07/01 03:31:56;;;;;;;24.48;15.65;;;23.50;99.90;;;;;;5073681;28;20094;-79
2022/07/01 03:34:21;;;;;;;22.55;14.55;;;23.60;99.90;;;;;;5074270;28;20035;-79
2022/07/01 03:36:47;;;;;;;20.48;15.55;;;23.60;99.90;;;;;;5074295;28;20112;-80
2022/07/01 03:39:13;;;;;;;20.17;14.77;;;23.60;99.90;;;;;;5073316;28;20175;-78
2022/07/01 03:41:39;;;;;;;21.95;16.25;;;23.60;99.90;;;;;;5073790;28;20031;-79
2022/07/01 03:44:08;;;;;;;23.70;16.35;;;23.60;99.90;;;;;;5073413;28;20426;-80
2022/07/01 03:46:35;;;;;;;22.95;15.73;;;23.50;99.90;;;;;;5073117;28;20467;-78
2022/07/01 03:49:01;;;;;;;25.23;15.40;;;23.60;99.90;;;;;;5073579;28;20025;-78
2022/07/01 03:51:27;;;;;;;20.35;14.45;;;23.60;99.90;;;;;;5073368;28;20028;-77
2022/07/01 03:56:37;;;;;;;21.23;14.55;;;23.60;99.90;;;;;;5073272;28;20024;-77
2022/07/01 03:59:03;;;;;;;22.33;15.52;;;23.70;99.90;;;;;;5072209;28;20021;-77
2022/07/01 04:01:29;;;;;;;24.80;15.68;;;23.70;99.90;;;;;;5072683;28;20374;-78
2022/07/01 04:03:55;;;;;;;25.42;14.65;;;;;;;;;;5073373;28;20379;-79
2022/07/01 04:06:21;;;;;;;17.05;15.30;;;23.90;99.90;;;;;;5072451;28;20082;-79
2022/07/01 04:08:48;;;;;;;21.20;15.00;;;23.90;99.90;;;;;;5073110;28;20032;-78
2022/07/01 04:11:15;;;;;;;24.63;15.20;;;23.90;99.90;;;;;;5073041;28;20056;-78
2022/07/01 04:13:46;;;;;;;26.83;15.48;;;23.90;99.90;;;;;;5072359;28;20040;-79
2022/07/01 04:16:12;;;;;;;28.17;17.75;;;24.00;99.90;;;;;;5073831;28;20107;-78
2022/07/01 04:18:39;;;;;;;26.60;17.63;;;;;;;;;;5073657;28;20027;-78
2022/07/01 04:23:50;;;;;;;20.73;15.93;;;;;;;;;;5073427;28;20036;-80
2022/07/01 04:26:16;;;;;;;26.35;15.98;;;;;;;;;;5072300;28;20040;-81
2022/07/01 04:28:42;;;;;;;28.50;16.10;;;;;;;;;;5073321;28;20070;-80
2022/07/01 04:31:09;;;;;;;19.63;14.63;;;;;;;;;;5073213;28;20024;-79
2022/07/01 04:33:35;;;;;;;20.75;15.65;;;;;;;;;;5073574;28;20103;-80
2022/07/01 04:36:01;;;;;;;25.25;15.80;;;;;;;;;;5073549;28;20031;-80
2022/07/01 04:38:27;;;;;;;30.75;15.13;;;;;;;;;;5073793;28;20051;-79
2022/07/01 04:43:38;;;;;;;24.83;13.55;;;;;;;;;;5072592;28;20394;-81
2022/07/01 04:46:05;;;;;;;23.38;13.95;;;;;;;;;;5072047;28;20387;-80
2022/07/01 04:48:31;;;;;;;25.05;13.35;;;;;;;;;;5073057;28;20181;-80
2022/07/01 04:50:57;;;;;;;20.02;13.05;;;;;;;;;;5071363;28;20016;-79
2022/07/01 04:53:23;;;;;;;18.60;12.43;;;;;;;;;;5073004;28;20035;-80
2022/07/01 04:55:49;;;;;;;20.02;13.40;;;;;;;;;;5073078;28;20020;-79
2022/07/01 04:58:16;;;;;;;19.33;11.95;;;;;;;;;;5073425;28;20066;-80
2022/07/01 05:00:42;;;;;;;19.70;11.75;;;;;;;;;;5072838;28;20029;-79
2022/07/01 05:03:09;;;;;;;23.92;12.15;;;;;;;;;;5072492;28;20501;-81
2022/07/01 05:05:35;;;;;;;23.58;12.68;;;;;;;;;;5073031;28;20371;-80
2022/07/01 05:08:01;;;;;;;18.98;11.85;;;;;;;;;;5073228;28;20370;-79
2022/07/01 05:10:28;;;;;;;22.80;12.45;;;;;;;;;;5071603;28;20070;-80
2022/07/01 05:12:55;;;;;;;20.20;12.93;;;;;;;;;;5073002;28;20039;-80
2022/07/01 05:15:21;;;;;;;25.88;13.85;;;;;;;;;;5071784;28;20063;-80
2022/07/01 05:23:17;;;;;;;18.63;12.55;;;;;;;;;;5072706;28;20533;-79
2022/07/01 05:25:43;;;;;;;19.13;12.32;;;;;;;;;;5075761;28;20028;-80
2022/07/01 05:28:09;;;;;;;20.73;12.27;;;;;;;;;;5075241;28;20067;-80
2022/07/01 05:30:35;;;;;;;23.80;12.98;;;;;;;;;;5076727;28;20048;-80
2022/07/01 05:33:01;;;;;;;20.35;12.38;;;;;;;;;;5076392;28;20064;-80
2022/07/01 05:35:27;;;;;;;25.73;13.05;;;;;;;;;;5076502;28;20100;-78
2022/07/01 05:37:53;;;;;;;26.02;12.57;;;;;;;;;;5076249;28;20016;-78
2022/07/01 05:40:20;;;;;;;20.92;12.98;;;;;;;;;;5076515;28;20040;-79
2022/07/01 05:42:46;;;;;;;17.98;12.63;;;;;;;;;;5076386;28;20374;-79
2022/07/01 05:45:12;;;;;;;19.85;12.20;;;;;;;;;;5076084;28;20017;-78
2022/07/01 05:47:38;;;;;;;21.08;11.55;;;;;;;;;;5076293;28;20020;-80
2022/07/01 05:50:04;;;;;;;17.80;11.80;;;;;;;;;;5075066;28;20021;-79
2022/07/01 05:52:30;;;;;;;19.38;12.05;;;;;;;;;;5075911;28;20473;-81
2022/07/01 05:54:57;;;;;;;18.20;11.20;;;;;;;;;;5075980;28;20483;-76
2022/07/01 05:57:23;;;;;;;21.38;11.73;;;;;;;;;;5075743;28;20447;-77
2022/07/01 05:59:49;;;;;;;19.25;11.90;;;;;;;;;;5075486;28;20421;-77
2022/07/01 06:02:15;;;;;;;17.33;12.38;;;;;;;;;;5075814;28;20463;-77
2022/07/01 06:04:43;;;;;;;21.77;13.63;;;;;;;;;;5075992;28;20028;-77
2022/07/01 06:07:10;;;;;;;21.33;13.30;;;;;;;;;;5074444;28;20085;-77
2022/07/01 06:09:36;;;;;;;22.52;14.30;;;;;;;;;;5074593;28;20021;-76
2022/07/01 06:12:03;;;;;;;19.23;14.50;;;;;;;;;;5075910;28;20078;-77
2022/07/01 06:14:29;;;;;;;23.42;15.20;;;;;;;;;;5075506;28;20032;-76
2022/07/01 06:16:55;;;;;;;24.40;15.05;;;;;;;;;;5075808;28;20028;-79
2022/07/01 06:19:21;;;;;;;22.45;14.32;;;;;;;;;;5075318;28;20020;-77
2022/07/01 06:21:47;;;;;;;22.73;14.20;;;;;;;;;;5075561;28;20381;-77
2022/07/01 06:24:14;;;;;;;23.15;15.32;;;;;;;;;;5076000;28;20025;-78
2022/07/01 06:26:40;;;;;;;22.63;13.60;;;;;;;;;;5075534;28;20052;-78
2022/07/01 06:29:06;;;;;;;24.20;14.50;;;;;;;;;;5075339;28;20021;-78
2022/07/01 06:31:33;;;;;;;23.73;13.90;;;;;;;;;;5075861;28;20049;-78
2022/07/01 06:34:00;;;;;;;19.42;13.18;;;;;;;;;;5073940;28;20157;-78
2022/07/01 06:36:26;;;;;;;19.70;11.98;;;;;;;;;;5075354;28;20024;-78
2022/07/01 06:38:52;;;;;;;20.33;12.38;;;;;;;;;;5075177;28;20024;-79
2022/07/01 06:41:28;;;;;;;22.23;12.50;;;;;;;;;;5073871;28;20104;-78
2022/07/01 06:43:58;;;;;;;20.90;12.10;;;;;;;;;;5075303;28;20075;-78
2022/07/01 06:46:24;;;;;;;17.98;12.18;;;;;;;;;;5074007;28;20205;-79
2022/07/01 06:48:51;;;;;;;16.55;11.93;;;;;;;;;;5074580;28;20016;-77
2022/07/01 06:51:17;;;;;;;17.70;12.20;;;;;;;;;;5075107;28;20016;-77
2022/07/01 06:53:44;;;;;;;16.27;11.38;;;;;;;;;;5073846;28;20023;-78
2022/07/01 06:56:11;;;;;;;17.17;12.18;;;;;;;;;;5074734;28;20036;-77
2022/07/01 06:58:37;;;;;;;15.38;11.52;;;;;;;;;;5074638;28;20017;-78
2022/07/01 07:01:04;;;;;;;20.63;12.80;;;;;;;;;;5075003;28;20096;-78
2022/07/01 07:03:32;;;;;;;19.83;12.02;;;;;;;;;;5073238;28;20390;-79
2022/07/01 07:06:00;;;;;;;16.20;10.68;;;;;;;;;;5074614;28;20078;-79
2022/07/01 07:08:27;;;;;;;16.02;10.52;;;;;;;;;;5073300;28;20016;-78
2022/07/01 07:10:53;;;;;;;16.85;9.30;;;;;;;;;;5074754;28;20099;-78
2022/07/01 07:13:19;;;;;;;16.40;10.52;;;;;;;;;;5074717;28;20032;-80
2022/07/01 07:15:45;;;;;;;16.33;10.40;;;;;;;;;;5073037;28;20029;-80
2022/07/01 07:18:18;;;;;;;14.95;10.57;;;;;;;;;;5073969;28;20012;-85
2022/07/01 07:20:44;;;;;;;16.75;10.23;;;;;;;;;;5073759;28;20033;-76
2022/07/01 07:23:10;;;;;;;13.30;9.57;;;;;;;;;;5073878;28;20039;-77
2022/07/01 07:25:36;;;;;;;21.65;10.23;;;;;;;;;;5071153;28;20021;-77
2022/07/01 07:28:02;;;;;;;13.13;9.35;;;;;;;;;;5074414;28;20057;-77
2022/07/01 07:30:29;;;;;;;16.90;9.95;;;;;;;;;;5073432;28;20483;-77
2022/07/01 07:32:55;;;;;;;17.00;9.18;;;;;;;;;;5074438;28;20036;-76
2022/07/01 07:35:22;;;;;;;12.00;9.27;;;;;;;;;;5073985;28;20072;-76
2022/07/01 07:37:49;;;;;;;14.68;8.52;;;;;;;;;;5073730;28;20017;-77
2022/07/01 07:40:18;;;;;;;16.08;10.30;;;;;;;;;;5074158;28;20029;-78
2022/07/01 07:42:46;;;;;;;16.27;9.65;;;;;;;;;;5074491;28;20073;-78
2022/07/01 07:45:14;;;;;;;17.73;9.70;;;;;;;;;;5073517;28;20525;-75
2022/07/01 07:47:42;;;;;;;16.33;10.13;;;;;;;;;;5073508;28;20063;-74
2022/07/01 07:50:09;;;;;;;12.93;9.82;;;;;;;;;;5074150;28;20128;-75
2022/07/01 07:52:35;;;;;;;18.67;9.98;;;;;;;;;;5072477;28;20051;-78
2022/07/01 07:55:02;;;;;;;15.23;9.82;;;;;;;;;;5073039;28;20028;-75
2022/07/01 07:57:29;;;;;;;14.40;10.13;;;;;;;;;;5074013;28;20142;-75
2022/07/01 07:59:56;;;;;;;14.30;9.60;;;;;;;;;;5073541;28;20016;-77
2022/07/01 08:02:22;;;;;;;14.40;10.45;;;;;;;;;;5074105;28;20536;-75
2022/07/01 08:04:48;;;;;;;14.82;10.40;;;;;;;;;;5073362;28;20379;-75
2022/07/01 08:07:14;;;;;;;12.30;10.27;;;;;;;;;;5073398;28;20403;-76
2022/07/01 08:09:45;;;;;;;14.98;10.20;;;;;;;;;;5073640;28;20404;-76
2022/07/01 08:12:12;;;;;;;16.15;10.43;;;;;;;;;;5073876;28;20032;-76
2022/07/01 08:14:38;;;;;;;16.60;9.32;;;;;;;;;;5072595;28;20035;-76
2022/07/01 08:17:04;;;;;;;15.55;10.45;;;;;;;;;;5072602;28;20024;-76
2022/07/01 08:19:31;;;;;;;13.23;9.70;;;;;;;;;;5073480;28;20031;-74
2022/07/01 08:21:57;;;;;;;13.77;9.95;;;;;;;;;;5073860;28;20024;-76
2022/07/01 08:24:23;;;;;;;15.77;9.82;;;;;;;;;;5073572;28;20099;-76
2022/07/01 08:26:50;;;;;;;12.98;10.10;;;;;;;;;;5073257;28;20475;-77
2022/07/01 08:29:16;;;;;;;16.75;10.40;;;;;;;;;;5072406;28;20471;-76
2022/07/01 08:31:42;;;;;;;13.07;10.00;;;;;;;;;;5073665;28;20029;-77
2022/07/01 08:34:09;;;;;;;13.70;9.77;;;;;;;;;;5072059;28;20121;-77
2022/07/01 08:36:35;;;;;;;16.30;10.07;;;;;;;;;;5073662;28;20025;-77
2022/07/01 08:39:02;;;;;;;14.65;10.05;;;;;;;;;;5073638;28;20017;-77
2022/07/01 08:41:28;;;;;;;12.20;10.23;;;;;;;;;;5073518;28;20096;-76
2022/07/01 08:43:54;;;;;;;12.73;9.07;;;;;;;;;;5073309;28;20482;-76
2022/07/01 08:46:22;;;;;;;12.18;8.68;;;;;;;;;;5073113;28;20456;-76
2022/07/01 08:48:48;;;;;;;9.90;8.43;;;;;;;;;;5073284;28;20017;-77
2022/07/01 08:51:14;;;;;;;15.77;8.05;;;;;;;;;;5073483;28;20017;-76
2022/07/01 08:53:40;;;;;;;11.50;8.48;;;;;;;;;;5071086;28;20039;-75
2022/07/01 08:58:52;;;;;;;11.57;8.90;;;;;;;;;;5071127;28;20051;-75
2022/07/01 09:01:20;;;;;;;12.18;9.50;;;;;;;;;;5073015;28;20023;-77
2022/07/01 09:03:47;;;;;;;11.45;9.50;;;;;;;;;;5075656;28;20028;-77
2022/07/01 09:06:14;;;;;;;15.50;9.65;;;;;;;;;;5075561;28;20033;-76
2022/07/01 09:08:41;;;;;;;14.93;9.25;;;;;;;;;;5074709;28;20070;-78
2022/07/01 09:11:13;;;;;;;9.90;8.23;;;;;;;;;;5077212;28;20051;-76
2022/07/01 09:13:40;;;;;;;13.52;7.78;;;;;;;;;;5077036;28;20017;-77
2022/07/01 09:16:16;;;;;;;15.77;8.23;;;;;;;;;;5075537;28;20032;-76
2022/07/01 09:19:12;;;;;;;14.98;8.15;;;;;;;;;;5077251;28;20104;-75
2022/07/01 09:21:38;;;;;;;13.45;9.38;;;;;;;;;;5034500;28;20026;-77
2022/07/01 09:24:05;;;;;;;10.43;9.40;;;;;;;;;;5034497;28;20032;-76
2022/07/01 09:26:31;;;;;;;10.10;8.20;;;;;;;;;;5034407;28;20080;-77
2022/07/01 09:28:59;;;;;;;12.00;9.07;;;;;;;;;;5034223;28;20029;-75
2022/07/01 09:31:34;;;;;;;15.85;8.90;;;;;;;;;;5017750;28;20080;-75
2022/07/01 09:34:04;;;;;;;14.60;9.05;;;;;;;;;;5034583;28;20516;-76
2022/07/01 09:36:31;;;;;;;12.65;10.02;;;;;;;;;;5016196;28;20104;-75
2022/07/01 09:38:57;;;;;;;11.02;9.18;;;;;;;;;;5033785;28;20087;-76
2022/07/01 09:41:26;;;;;;;13.18;9.35;;;;;;;;;;5034046;28;20100;-75
2022/07/01 09:43:52;;;;;;;13.55;9.02;;;;;;;;;;5033657;28;20289;-78
2022/07/01 09:46:18;;;;;;;10.98;8.75;;;;;;;;;;5033970;28;20041;-76
2022/07/01 09:48:45;;;;;;;15.52;8.57;;;;;;;;;;5034200;28;20025;-75
2022/07/01 09:51:12;;;;;;;13.85;9.13;;;;;;;;;;5033641;28;20044;-76
2022/07/01 09:53:38;;;;;;;16.58;9.50;;;;;;;;;;5034068;28;20076;-76
2022/07/01 09:56:05;;;;;;;13.27;8.85;;;;;;;;;;5034070;28;20043;-76
2022/07/01 09:58:32;;;;;;;11.95;9.10;;;;;;;;;;5063754;28;20041;-76
2022/07/01 10:00:58;;;;;;;9.18;8.27;;;;;;;;;;5075060;28;20020;-75
2022/07/01 10:03:26;;;;;;;11.05;9.50;;;;;;;;;;5074752;28;20021;-76
2022/07/01 10:06:10;;;;;;;12.15;9.60;;;;;;;;;;5072187;28;20070;-77
2022/07/01 10:08:47;;;;;;;12.18;9.77;;;;;;;;;;5072561;28;20020;-76
2022/07/01 10:11:19;;;;;;;13.70;9.73;;;;;;;;;;5071726;28;20053;-76
2022/07/01 10:13:46;;;;;;;11.70;9.70;;;;;;;;;;5074509;28;20127;-76
2022/07/01 10:16:13;;;;;;;15.02;9.30;;;;;;;;;;5074365;28;20020;-74
2022/07/01 10:18:39;;;;;;;15.48;10.23;;;;;;;;;;5074321;28;20593;-77
2022/07/01 10:21:06;;;;;;;13.25;9.82;;;;;;;;;;5074453;28;20509;-75
2022/07/01 10:23:42;;;;;;;14.07;9.88;;;;;;;;;;5074535;28;20133;-76
2022/07/01 10:26:10;;;;;;;12.55;10.35;;;;;;;;;;5072534;28;20020;-76
2022/07/01 10:28:43;;;;;;;17.70;11.20;;;;;;;;;;5073407;28;20370;-75
2022/07/01 10:31:15;;;;;;;15.82;10.27;;;;;;;;;;5072979;28;20107;-75
2022/07/01 10:33:45;;;;;;;15.75;10.45;;;;;;;;;;5074151;28;20406;-76
2022/07/01 10:36:11;;;;;;;12.70;9.93;;;;;;;;;;5074389;28;20100;-76
2022/07/01 10:38:57;;;;;;;11.20;9.52;;;;;;;;;;5074996;28;20390;-76
2022/07/01 10:41:24;;;;;;;11.57;7.20;;;;;;;;;;5073689;28;20021;-76
2022/07/01 10:43:50;;;;;;;10.73;7.57;;;;;;;;;;5073683;28;20028;-76
2022/07/01 10:46:35;;;;;;;12.32;7.80;;;;;;;;;;5073419;28;20383;-75
2022/07/01 10:49:01;;;;;;;10.00;7.07;;;;;;;;;;5072753;28;20024;-76
2022/07/01 10:51:47;;;;;;;11.40;7.88;;;;;;;;;;5074132;28;20016;-75
2022/07/01 10:54:14;;;;;;;10.98;7.13;;;;;;;;;;5071159;28;20020;-75
2022/07/01 10:56:41;;;;;;;13.05;8.93;;;;;;;;;;5074236;28;20027;-75
2022/07/01 10:59:08;;;;;;;10.70;7.95;;;;;;;;;;5074608;28;20070;-76
2022/07/01 11:01:34;;;;;;;10.27;7.93;;;;;;;;;;5074238;28;20028;-75
2022/07/01 11:04:01;;;;;;;9.98;8.65;;;;;;;;;;5073181;28;20019;-75
2022/07/01 11:06:28;;;;;;;11.32;8.32;;;;;;;;;;5074486;28;20016;-75
2022/07/01 11:08:54;;;;;;;10.23;9.32;;;;;;;;;;5074776;28;20103;-75
2022/07/01 11:11:22;;;;;;;11.95;8.38;;;;;;;;;;5073686;28;20025;-75
2022/07/01 11:13:48;;;;;;;9.95;8.57;;;;;;;;;;5073863;28;20028;-76
2022/07/01 11:16:15;;;;;;;14.07;8.05;;;;;;;;;;5074020;28;20380;-76
2022/07/01 11:18:41;;;;;;;11.98;10.13;;;;;;;;;;5074138;28;20048;-75
2022/07/01 11:21:08;;;;;;;10.38;8.85;;;;;;;;;;5073862;28;20028;-75
2022/07/01 11:23:35;;;;;;;13.25;9.13;;;;;;;;;;5073297;28;20467;-75
2022/07/01 11:26:01;;;;;;;9.82;8.93;;;;;;;;;;5073033;28;20035;-74
2022/07/01 11:28:27;;;;;;;12.25;9.25;;;;;;;;;;5073256;28;20016;-75
2022/07/01 11:31:02;;;;;;;11.93;8.90;;;;;;;;;;5072287;28;20028;-76
2022/07/01 11:33:28;;;;;;;12.05;8.65;;;;;;;;;;5053718;28;20043;-76
2022/07/01 11:41:26;;;;;;;9.98;8.98;;;;;;;;;;5053661;28;20083;-76
2022/07/01 11:43:52;;;;;;;11.10;9.07;;;;;;;;;;5052374;28;20075;-76
2022/07/01 11:46:18;;;;;;;10.48;9.32;;;;;;;;;;5052188;28;20021;-75
2022/07/01 11:48:51;;;;;;;10.75;9.20;;;;;;;;;;5053347;28;20032;-75
2022/07/01 11:51:19;;;;;;;15.80;10.07;;;;;;;;;;5053336;28;20020;-76
2022/07/01 11:53:46;;;;;;;10.57;9.32;;;;;;;;;;5053462;28;20024;-76
2022/07/01 11:56:13;;;;;;;22.73;11.68;;;;;;;;;;5052684;28;20025;-76
2022/07/01 11:58:46;;;;;;;10.73;9.23;;;;;;;;;;5053208;28;20028;-76
2022/07/01 12:01:20;;;;;;;12.80;8.73;;;;;;;;;;5051965;28;20028;-76
2022/07/01 12:03:46;;;;;;;13.90;9.60;;;;;;;;;;5053114;28;20534;-75
2022/07/01 12:06:13;;;;;;;12.70;9.52;;;;;;;;;;5053112;28;20021;-76
2022/07/01 12:08:39;;;;;;;13.52;9.18;;;;;;;;;;5052919;28;20066;-76
2022/07/01 12:11:05;;;;;;;14.85;9.70;;;;;;;;;;5052584;28;20029;-76
2022/07/01 12:13:37;;;;;;;11.15;9.70;;;;;;;;;;5052936;28;20021;-77
2022/07/01 12:16:10;;;;;;;11.60;9.05;;;;;;;;;;5051940;28;20368;-76
2022/07/01 12:18:36;;;;;;;9.98;8.77;;;;;;;;;;5052640;28;20033;-77
2022/07/01 12:21:02;;;;;;;10.95;8.73;;;;;;;;;;5052706;28;20360;-76
2022/07/01 12:23:29;;;;;;;11.35;8.63;;;;;;;;;;5052730;28;20387;-77
2022/07/01 12:25:55;;;;;;;8.98;8.18;;;;;;;;;;5052754;28;20029;-77
2022/07/01 12:28:30;;;;;;;12.43;7.90;;;;;;;;;;5051794;28;20025;-76
2022/07/01 12:31:06;;;;;;;8.98;8.05;;;;;;;;;;5052482;28;20460;-78
2022/07/01 12:33:32;;;;;;;14.52;8.32;;;;;;;;;;5055142;28;20093;-76
2022/07/01 12:36:00;;;;;;;13.80;8.43;;;;;;;;;;5059370;28;20506;-77
2022/07/01 12:38:26;;;;;;;10.05;8.10;;;;;;;;;;5057922;28;20021;-77
2022/07/01 12:40:53;;;;;;;11.63;9.93;;;;;;;;;;5059681;28;20039;-77
2022/07/01 12:43:23;;;;;;;10.63;9.63;;;;;;;;;;5059568;28;20078;-78
2022/07/01 12:45:49;;;;;;;10.60;9.60;;;;;;;;;;5058035;28;20035;-77
2022/07/01 12:48:15;;;;;;;10.63;9.02;;;;;;;;;;5058689;28;20031;-77
2022/07/01 12:50:41;;;;;;;13.48;9.45;;;;;;;;;;5057252;28;20439;-77
2022/07/01 12:53:09;;;;;;;12.93;9.98;;;;;;;;;;5058530;28;20533;-77
2022/07/01 12:55:39;;;;;;;10.98;9.88;;;;;;;;;;5058361;28;20025;-76
2022/07/01 12:58:10;;;;;;;12.75;10.10;;;;;;;;;;5059280;28;20027;-77
2022/07/01 13:00:36;;;;;;;11.23;10.23;;;;;;;;;;5059164;28;20029;-78
2022/07/01 13:03:03;;;;;;;11.48;10.00;;;;;;;;;;5059149;28;20599;-77
2022/07/01 13:05:30;;;;;;;11.02;9.77;;;;;;;;;;5070514;28;20356;-77
2022/07/01 13:07:57;;;;;;;13.07;10.75;;;;;;;;;;5076712;28;20017;-78
2022/07/01 13:10:23;;;;;;;11.55;10.20;;;;;;;;;;5077907;28;20013;-77
2022/07/01 13:12:50;;;;;;;11.23;10.13;;;;;;;;;;5077589;28;20071;-78
2022/07/01 13:15:17;;;;;;;10.45;9.55;;;;;;;;;;5077789;28;20028;-77
2022/07/01 13:17:43;;;;;;;10.85;9.35;;;;;;;;;;5078121;28;20024;-77
2022/07/01 13:20:10;;;;;;;11.20;8.43;;;;;;;;;;5077349;28;20456;-77
2022/07/01 13:22:36;;;;;;;14.65;8.93;;;;;;;;;;5076616;28;20471;-77
2022/07/01 13:25:03;;;;;;;12.50;8.75;;;;;;;;;;5077907;28;20489;-77
2022/07/01 13:27:29;;;;;;;9.75;8.75;;;;;;;;;;5078482;28;20045;-78
2022/07/01 13:29:56;;;;;;;9.20;8.25;;;;;;;;;;5079286;28;20031;-78
2022/07/01 13:32:22;;;;;;;13.75;9.35;;;;;;;;;;5078678;28;20060;-76
2022/07/01 13:34:48;;;;;;;13.90;9.43;;;;;;;;;;5078751;28;20502;-78
2022/07/01 13:37:15;;;;;;;12.88;10.52;;;;;;;;;;5078884;28;20024;-77
2022/07/01 13:39:41;;;;;;;11.55;9.70;;;;;;;;;;5079164;28;20048;-78
2022/07/01 13:42:07;;;;;;;13.50;10.30;;;;;;;;;;5078311;28;20028;-79
2022/07/01 13:44:34;;;;;;;10.43;9.00;;;;;;;;;;5075828;28;20078;-82
2022/07/01 13:47:29;;;;;;;10.93;8.20;;;;;;;;;;5070471;28;20043;-87
2022/07/01 13:49:59;;;;;;;9.80;8.50;;;;;;;;;;5073986;28;20035;-78
2022/07/01 13:52:27;;;;;;;10.50;9.18;;;;;;;;;;5074332;28;20029;-76
2022/07/01 13:54:56;;;;;;;82.32;29.75;;;;;;;;;;5072857;28;20103;-76
2022/07/01 13:57:23;;;;;;;9.35;8.45;;;;;;;;;;5074309;28;20088;-76
2022/07/01 13:59:52;;;;;;;11.38;9.57;;;;;;;;;;5074132;28;20024;-81
2022/07/01 14:02:19;;;;;;;9.98;8.82;;;;;;;;;;5073751;28;20145;-75
2022/07/01 14:04:46;;;;;;;12.43;9.48;;;;;;;;;;5074073;28;20060;-75
2022/07/01 14:07:12;;;;;;;9.95;8.95;;;;;;;;;;5075577;28;20112;-77
2022/07/01 14:09:40;;;;;;;14.10;9.85;;;;;;;;;;5073855;28;20039;-75
2022/07/01 14:12:06;;;;;;;14.93;9.50;;;;;;;;;;5073893;28;20021;-76
2022/07/01 14:14:32;;;;;;;13.15;9.82;;;;;;;;;;5073954;28;20065;-77
2022/07/01 14:16:58;;;;;;;10.15;9.15;;;;;;;;;;5073235;28;20027;-76
2022/07/01 14:19:26;;;;;;;13.40;10.07;;;;;;;;;;5074031;28;20029;-77
2022/07/01 14:21:52;;;;;;;11.40;10.07;;;;;;;;;;5072511;28;20039;-77
2022/07/01 14:24:18;;;;;;;45.40;16.23;;;;;;;;;;5072084;28;20081;-77